Date,TemperatureHighF,TemperatureAvgF,TemperatureLowF,DewpointHighF,DewpointAvgF,DewpointLowF,HumidityHigh,HumidityAvg,HumidityLow,PressureMaxIn,PressureMinIn,WindSpeedMaxMPH,WindSpeedAvgMPH,GustSpeedMaxMPH,PrecipitationSumIn
2013-1-2,58.3,55.9,54.0,28.6,26.9,25.5,33,33,32,29.53,29.47,6,2,6,0.00
2013-1-3,55.0,54.5,54.0,26.5,26.0,25.5,33,33,33,29.53,29.47,3,1,3,0.87
2013-1-4,51.6,38.5,36.9,46.3,15.9,14.2,82,39,39,29.68,29.56,2,0,2,1.04
2013-1-5,66.2,58.6,37.8,34.7,30.0,15.0,39,34,31,29.74,29.59,6,1,6,2.17
2013-1-9,61.3,51.7,44.1,42.7,35.6,24.1,77,57,34,29.59,29.35,4,1,4,0.00
2013-1-10,61.5,57.3,49.6,42.4,28.7,25.0,76,33,32,29.41,29.35,15,4,15,0.00
2013-1-11,52.5,41.5,39.2,25.0,17.5,15.7,39,38,34,29.53,29.38,5,2,5,2.28
2013-1-12,57.6,42.2,32.4,28.2,19.1,13.2,52,40,32,29.62,29.47,15,2,15,0.00
2013-1-13,59.0,46.9,34.2,29.8,21.4,14.5,44,36,32,29.65,29.47,6,2,6,0.00
2013-1-14,55.6,44.4,36.7,27.0,18.6,12.7,37,35,33,29.79,29.47,30,7,30,0.00
2013-1-15,44.4,43.3,43.0,18.5,17.5,17.2,35,35,35,29.82,29.79,9,5,9,0.00
2013-1-16,66.4,59.1,43.0,34.9,29.5,17.2,35,32,31,29.82,29.74,22,11,22,0.00
2013-1-17,73.9,66.0,60.3,39.5,33.9,30.0,32,30,29,29.62,29.50,28,8,28,0.00
2013-1-18,73.6,68.4,63.9,39.1,35.9,32.7,31,30,29,29.50,29.47,23,7,23,0.00
2013-1-19,75.4,67.2,57.0,41.0,34.9,27.6,33,30,29,29.62,29.47,22,7,22,0.00
2013-1-21,77.9,71.3,59.9,42.2,37.9,30.0,32,30,28,29.53,29.41,22,6,22,0.00
2013-1-25,73.2,59.1,56.1,54.2,44.7,35.4,92,61,29,29.56,29.38,11,4,11,0.21
2013-1-26,73.9,61.3,54.5,60.7,50.8,41.7,95,72,35,29.38,29.29,6,1,6,0.29
2013-1-27,72.1,67.8,61.0,48.7,46.2,42.0,63,46,37,29.35,29.29,5,2,6,0.00
2013-1-30,73.0,65.4,52.7,48.3,36.4,31.6,63,35,31,29.79,29.65,7,2,7,0.00
2013-1-31,52.3,47.4,44.2,34.2,33.2,32.4,64,58,48,29.68,29.62,2,0,2,0.00
2013-2-2,76.6,68.1,60.4,42.0,36.6,32.0,34,31,29,29.68,29.53,10,3,10,0.38
2013-2-3,75.9,71.0,65.5,41.4,38.9,36.4,34,31,29,29.59,29.53,8,2,10,0.00
2013-2-7,63.7,44.7,37.9,50.5,39.0,35.0,96,83,41,29.59,29.50,8,0,8,0.38
2013-2-8,67.6,65.2,62.8,40.7,38.0,36.5,42,37,35,29.56,29.47,6,2,6,0.00
2013-2-10,67.3,45.6,33.8,40.1,32.0,28.0,87,63,35,29.56,29.47,136,1,136,0.00
2013-2-11,58.3,57.5,56.8,31.5,30.8,30.2,36,36,36,29.50,29.50,3,2,3,0.00
2013-2-14,56.8,39.7,37.4,30.2,25.1,23.7,59,56,36,29.59,29.50,3,0,3,0.20
2013-2-15,37.8,37.5,37.4,25.1,24.5,24.0,60,59,58,29.59,29.59,3,1,3,0.00
2013-2-17,75.0,53.8,38.8,40.5,26.5,16.0,39,35,29,29.59,29.32,8,1,8,0.00
2013-2-18,71.2,71.0,70.7,38.9,38.3,37.8,31,30,30,29.35,29.32,7,3,7,0.00
2013-2-19,71.1,52.5,45.3,40.4,36.0,29.6,76,55,31,29.38,29.14,7,1,7,0.00
2013-2-20,71.1,47.0,45.5,38.0,37.0,36.1,74,68,64,29.32,29.14,4,1,4,0.04
2013-2-26,74.7,60.4,36.3,40.2,31.8,17.5,74,35,29,29.47,29.17,24,5,24,0.01
2013-3-4,74.1,58.7,42.3,50.8,41.1,37.2,93,57,32,29.53,29.41,0,0,0,0.00
2013-3-11,81.1,60.8,39.9,45.0,34.1,23.1,69,38,28,29.62,29.47,7,1,10,450.57
2013-3-29,73.9,55.3,46.2,56.6,47.3,43.0,98,78,36,29.56,29.44,8,1,8,0.00
2013-4-5,78.3,63.6,54.1,55.0,47.9,42.4,86,60,32,29.53,29.38,8,1,8,0.00
2013-4-6,54.0,52.4,51.4,47.8,46.6,45.4,85,81,75,29.44,29.41,2,0,2,0.21
2013-4-10,89.2,73.0,51.4,49.6,39.1,24.0,85,30,26,29.53,29.41,10,2,10,0.00
2013-4-11,85.8,85.5,85.1,48.0,47.8,47.4,27,27,27,29.41,29.38,5,2,5,0.00
2013-4-12,81.5,81.5,81.5,46.2,46.2,46.2,29,29,29,29.29,29.29,3,3,3,0.00
2013-4-14,85.5,64.8,54.5,51.3,50.1,47.7,89,68,27,29.38,29.23,0,0,4,0.00
2013-4-15,81.5,58.8,53.6,51.5,46.6,42.4,82,66,29,29.29,29.20,4,1,6,0.52
2013-5-3,103.6,84.7,66.6,58.3,46.4,34.2,37,27,23,29.38,29.20,17,3,17,0.05
2013-5-4,91.9,91.8,91.6,51.1,51.0,50.8,25,25,25,29.20,29.20,3,2,3,0.00
2013-5-5,91.6,63.1,57.6,50.8,41.6,37.9,61,46,25,29.32,29.17,10,2,10,0.00
2013-5-16,64.8,52.2,51.1,48.2,46.9,41.2,88,82,42,29.35,29.26,0,0,4,0.00
2013-5-26,81.7,67.1,48.7,50.2,45.7,41.5,90,51,30,29.44,29.35,0,0,0,0.00
2013-7-5,86.4,83.5,80.1,58.0,55.6,46.7,41,39,31,29.41,29.17,2,2,2,0.00
2013-7-12,91.8,77.1,59.5,67.3,57.5,51.0,98,57,31,29.32,29.14,9,2,9,0.00
2013-7-13,78.6,63.8,62.4,56.2,54.8,52.3,80,73,66,29.26,29.26,2,1,2,0.00
2013-7-14,95.4,71.3,56.7,61.2,55.1,50.9,96,64,27,29.35,29.26,8,1,8,0.00
2013-7-15,94.5,91.9,87.6,56.4,54.0,51.5,29,28,27,29.26,29.23,10,3,10,0.00
2013-7-20,91.0,71.8,55.8,60.1,54.8,51.8,93,60,28,29.26,29.12,9,2,9,0.00
2013-7-21,81.1,70.3,62.6,62.8,58.0,54.2,86,67,45,29.26,29.17,7,1,7,0.00
2013-8-4,67.5,67.5,67.5,58.5,58.5,58.5,73,73,73,29.23,29.23,0,0,0,0.00
2013-8-6,67.5,67.5,67.5,58.5,58.5,58.5,73,73,73,29.23,29.23,0,0,0,0.00
2013-8-7,57.2,57.2,57.2,54.6,54.6,54.6,91,91,91,29.23,29.23,2,2,2,0.00
2013-8-8,57.4,57.0,56.7,55.4,55.1,54.6,95,93,91,29.38,29.38,3,1,3,0.00
2013-8-9,85.5,69.4,54.0,63.1,53.9,50.0,98,65,32,29.38,29.26,8,2,8,0.00
2013-8-10,85.5,69.7,54.0,64.7,53.9,49.5,98,65,31,29.38,29.26,8,2,9,0.00
2013-8-14,79.7,59.0,57.7,57.7,57.1,50.4,98,95,36,29.26,29.23,3,0,3,0.04
2013-8-15,79.7,57.5,56.5,57.7,56.7,50.4,98,97,36,29.29,29.23,3,0,3,0.04
2013-8-17,92.3,74.0,56.5,62.4,54.0,48.6,98,55,28,29.32,29.14,8,1,8,0.00
2013-8-18,88.3,67.2,54.5,63.3,55.2,48.9,98,71,33,29.26,29.17,7,1,7,0.00
2013-8-19,89.4,78.3,57.9,55.7,54.3,52.5,88,50,30,29.26,29.17,6,2,6,0.00
2013-8-21,90.9,73.9,55.2,61.0,53.4,47.2,96,55,28,29.35,29.17,7,1,7,0.04
2013-9-1,97.3,83.1,65.5,62.6,60.2,48.4,75,50,29,29.32,29.23,6,2,6,0.00
2013-9-2,90.7,90.6,90.5,60.1,60.0,59.9,36,36,36,29.23,29.23,4,2,4,0.00
2013-9-3,100.2,82.9,65.7,65.2,58.0,52.2,88,48,26,29.29,29.17,8,1,8,0.00
2013-9-4,72.3,71.9,71.6,55.1,54.8,54.4,56,55,54,29.26,29.26,2,0,2,0.00
2013-9-9,87.3,70.4,58.3,65.2,55.0,50.1,97,63,32,29.26,29.12,9,2,9,0.00
2013-9-10,61.3,61.0,60.4,54.2,53.8,53.4,80,77,75,29.14,29.14,1,0,1,0.00
2013-9-11,84.7,81.1,60.4,54.2,53.0,51.7,80,39,34,29.35,29.14,4,2,4,0.00
2013-10-4,82.8,77.7,70.9,52.3,42.1,37.1,43,28,27,29.44,29.32,30,10,30,0.00
2013-10-5,87.1,83.8,74.8,48.1,46.2,40.5,29,27,26,29.53,29.41,30,16,30,0.00
2013-11-1,86.0,84.6,80.1,47.9,47.0,44.0,28,27,26,29.44,29.38,13,6,13,0.12